sensor_id;sensor_type;location;lat;lon;timestamp;pressure;altitude;pressure_sealevel;temperature;humidity
32747;BME280;19118;50.860;13.662;2023-04-15T00:00:46;95818.34;;;4.85;100.00
32747;BME280;19118;50.860;13.662;2023-04-15T00:05:47;95814.72;;;4.86;100.00
32747;BME280;19118;50.860;13.662;2023-04-15T00:10:47;95811.72;;;4.89;100.00
32747;BME280;19118;50.860;13.662;2023-04-15T00:15:48;95804.28;;;4.93;100.00
32747;BME280;19118;50.860;13.662;2023-04-15T00:20:48;95801.06;;;4.91;100.00
32747;BME280;19118;50.860;13.662;2023-04-15T00:25:49;95792.88;;;5.01;100.00
32747;BME280;19118;50.860;13.662;2023-04-15T00:30:50;95794.00;;;4.91;100.00
32747;BME280;19118;50.860;13.662;2023-04-15T00:35:50;95782.31;;;4.87;100.00
32747;BME280;19118;50.860;13.662;2023-04-15T00:40:51;95771.56;;;4.82;100.00
32747;BME280;19118;50.860;13.662;2023-04-15T00:45:53;95766.34;;;4.82;100.00
32747;BME280;19118;50.860;13.662;2023-04-15T00:50:55;95771.63;;;4.89;100.00
32747;BME280;19118;50.860;13.662;2023-04-15T00:55:56;95770.66;;;4.96;100.00
32747;BME280;19118;50.860;13.662;2023-04-15T01:00:57;95758.94;;;4.92;100.00
32747;BME280;19118;50.860;13.662;2023-04-15T01:05:59;95749.44;;;4.85;100.00
32747;BME280;19118;50.860;13.662;2023-04-15T01:11:01;95742.97;;;4.81;100.00
32747;BME280;19118;50.860;13.662;2023-04-15T01:16:03;95738.47;;;4.75;100.00
32747;BME280;19118;50.860;13.662;2023-04-15T01:21:04;95733.09;;;4.76;100.00
32747;BME280;19118;50.860;13.662;2023-04-15T01:26:06;95729.69;;;4.82;100.00
32747;BME280;19118;50.860;13.662;2023-04-15T01:31:09;95728.06;;;4.81;100.00
32747;BME280;19118;50.860;13.662;2023-04-15T01:36:12;95724.84;;;4.79;100.00
32747;BME280;19118;50.860;13.662;2023-04-15T01:41:13;95730.81;;;4.73;100.00
32747;BME280;19118;50.860;13.662;2023-04-15T01:46:13;95724.69;;;4.87;100.00
32747;BME280;19118;50.860;13.662;2023-04-15T01:51:14;95718.00;;;4.85;100.00
32747;BME280;19118;50.860;13.662;2023-04-15T01:56:15;95710.53;;;4.82;100.00
32747;BME280;19118;50.860;13.662;2023-04-15T02:01:17;95714.13;;;4.74;100.00
32747;BME280;19118;50.860;13.662;2023-04-15T02:06:18;95705.44;;;4.74;100.00
32747;BME280;19118;50.860;13.662;2023-04-15T02:11:19;95701.47;;;4.78;100.00
32747;BME280;19118;50.860;13.662;2023-04-15T02:16:19;95703.03;;;4.72;100.00
32747;BME280;19118;50.860;13.662;2023-04-15T02:21:20;95705.50;;;4.80;100.00
32747;BME280;19118;50.860;13.662;2023-04-15T02:26:20;95703.88;;;4.79;100.00
32747;BME280;19118;50.860;13.662;2023-04-15T02:31:21;95704.72;;;4.86;100.00
32747;BME280;19118;50.860;13.662;2023-04-15T02:36:21;95696.03;;;4.86;100.00
32747;BME280;19118;50.860;13.662;2023-04-15T02:41:23;95692.41;;;4.87;100.00
32747;BME280;19118;50.860;13.662;2023-04-15T02:46:27;95686.41;;;4.93;100.00
32747;BME280;19118;50.860;13.662;2023-04-15T02:51:29;95683.16;;;4.84;100.00
32747;BME280;19118;50.860;13.662;2023-04-15T02:56:31;95665.63;;;4.85;100.00
32747;BME280;19118;50.860;13.662;2023-04-15T03:01:31;95672.66;;;4.84;100.00
32747;BME280;19118;50.860;13.662;2023-04-15T03:06:32;95679.31;;;4.80;100.00
32747;BME280;19118;50.860;13.662;2023-04-15T03:11:32;95664.00;;;4.77;100.00
32747;BME280;19118;50.860;13.662;2023-04-15T03:16:33;95655.50;;;4.75;100.00
32747;BME280;19118;50.860;13.662;2023-04-15T03:21:33;95660.38;;;4.78;100.00
32747;BME280;19118;50.860;13.662;2023-04-15T03:26:34;95675.50;;;4.83;100.00
32747;BME280;19118;50.860;13.662;2023-04-15T03:31:44;95670.06;;;4.84;100.00
32747;BME280;19118;50.860;13.662;2023-04-15T03:36:45;95661.00;;;4.87;100.00
32747;BME280;19118;50.860;13.662;2023-04-15T03:41:46;95657.56;;;4.86;100.00
32747;BME280;19118;50.860;13.662;2023-04-15T03:46:46;95652.13;;;4.81;100.00
32747;BME280;19118;50.860;13.662;2023-04-15T03:51:50;95637.00;;;4.83;100.00
32747;BME280;19118;50.860;13.662;2023-04-15T03:56:50;95635.00;;;4.85;100.00
32747;BME280;19118;50.860;13.662;2023-04-15T04:01:51;95634.19;;;4.78;100.00
32747;BME280;19118;50.860;13.662;2023-04-15T04:06:51;95639.03;;;4.81;100.00
32747;BME280;19118;50.860;13.662;2023-04-15T04:11:51;95639.81;;;4.82;100.00
32747;BME280;19118;50.860;13.662;2023-04-15T04:16:51;95634.56;;;4.75;100.00
32747;BME280;19118;50.860;13.662;2023-04-15T04:21:52;95641.44;;;4.76;100.00
32747;BME280;19118;50.860;13.662;2023-04-15T04:26:52;95640.44;;;4.77;100.00
32747;BME280;19118;50.860;13.662;2023-04-15T04:31:53;95644.47;;;4.86;100.00
32747;BME280;19118;50.860;13.662;2023-04-15T04:36:53;95654.34;;;4.84;100.00
32747;BME280;19118;50.860;13.662;2023-04-15T04:41:53;95666.47;;;4.92;100.00
32747;BME280;19118;50.860;13.662;2023-04-15T04:46:54;95662.44;;;4.96;100.00
32747;BME280;19118;50.860;13.662;2023-04-15T04:51:54;95671.34;;;5.02;100.00
32747;BME280;19118;50.860;13.662;2023-04-15T04:56:55;95678.41;;;5.08;100.00
32747;BME280;19118;50.860;13.662;2023-04-15T05:01:56;95681.06;;;5.14;100.00
32747;BME280;19118;50.860;13.662;2023-04-15T05:06:57;95669.78;;;5.14;100.00
32747;BME280;19118;50.860;13.662;2023-04-15T05:11:58;95681.03;;;5.08;100.00
32747;BME280;19118;50.860;13.662;2023-04-15T05:16:58;95661.69;;;5.09;100.00
32747;BME280;19118;50.860;13.662;2023-04-15T05:21:59;95672.19;;;5.15;100.00
32747;BME280;19118;50.860;13.662;2023-04-15T05:27:00;95669.78;;;5.20;100.00
32747;BME280;19118;50.860;13.662;2023-04-15T05:32:01;95670.03;;;5.32;100.00
32747;BME280;19118;50.860;13.662;2023-04-15T05:37:01;95666.22;;;5.41;100.00
32747;BME280;19118;50.860;13.662;2023-04-15T05:42:02;95673.09;;;5.42;100.00
32747;BME280;19118;50.860;13.662;2023-04-15T05:47:02;95668.28;;;5.46;100.00
32747;BME280;19118;50.860;13.662;2023-04-15T05:52:02;95684.00;;;5.46;100.00
32747;BME280;19118;50.860;13.662;2023-04-15T05:57:03;95681.81;;;5.56;100.00
32747;BME280;19118;50.860;13.662;2023-04-15T06:02:03;95671.91;;;5.51;100.00
32747;BME280;19118;50.860;13.662;2023-04-15T06:07:04;95677.38;;;5.57;100.00
32747;BME280;19118;50.860;13.662;2023-04-15T06:12:04;95675.78;;;5.75;100.00
32747;BME280;19118;50.860;13.662;2023-04-15T06:17:06;95677.38;;;5.70;100.00
32747;BME280;19118;50.860;13.662;2023-04-15T06:22:06;95680.81;;;5.77;100.00
32747;BME280;19118;50.860;13.662;2023-04-15T06:27:07;95679.84;;;5.98;100.00
32747;BME280;19118;50.860;13.662;2023-04-15T06:32:07;95683.72;;;6.02;100.00
32747;BME280;19118;50.860;13.662;2023-04-15T06:37:07;95671.19;;;6.30;100.00
32747;BME280;19118;50.860;13.662;2023-04-15T06:42:10;95683.91;;;6.13;100.00
32747;BME280;19118;50.860;13.662;2023-04-15T06:47:11;95678.84;;;6.19;100.00
32747;BME280;19118;50.860;13.662;2023-04-15T06:52:13;95676.00;;;6.33;100.00
32747;BME280;19118;50.860;13.662;2023-04-15T06:57:15;95674.00;;;6.35;100.00
32747;BME280;19118;50.860;13.662;2023-04-15T07:02:16;95667.94;;;6.48;100.00
32747;BME280;19118;50.860;13.662;2023-04-15T07:07:16;95680.44;;;6.59;100.00
32747;BME280;19118;50.860;13.662;2023-04-15T07:12:16;95674.72;;;6.76;100.00
32747;BME280;19118;50.860;13.662;2023-04-15T07:17:17;95662.69;;;7.13;100.00
32747;BME280;19118;50.860;13.662;2023-04-15T07:22:17;95668.78;;;7.51;100.00
32747;BME280;19118;50.860;13.662;2023-04-15T07:27:17;95646.66;;;7.91;100.00
32747;BME280;19118;50.860;13.662;2023-04-15T07:32:18;95631.28;;;7.87;100.00
32747;BME280;19118;50.860;13.662;2023-04-15T07:37:19;95610.41;;;8.17;100.00
32747;BME280;19118;50.860;13.662;2023-04-15T07:42:19;95603.09;;;8.20;100.00
32747;BME280;19118;50.860;13.662;2023-04-15T07:47:19;95592.47;;;8.26;100.00
32747;BME280;19118;50.860;13.662;2023-04-15T07:52:20;95586.69;;;8.79;100.00
32747;BME280;19118;50.860;13.662;2023-04-15T07:57:20;95592.28;;;9.19;100.00
32747;BME280;19118;50.860;13.662;2023-04-15T08:02:21;95596.66;;;9.25;100.00
32747;BME280;19118;50.860;13.662;2023-04-15T08:07:21;95607.00;;;9.69;100.00
32747;BME280;19118;50.860;13.662;2023-04-15T08:12:22;95616.09;;;9.96;100.00
32747;BME280;19118;50.860;13.662;2023-04-15T08:17:23;95629.75;;;10.23;100.00
32747;BME280;19118;50.860;13.662;2023-04-15T08:22:24;95645.59;;;10.23;100.00
32747;BME280;19118;50.860;13.662;2023-04-15T08:27:24;95656.31;;;9.56;100.00
32747;BME280;19118;50.860;13.662;2023-04-15T08:32:25;95668.53;;;9.51;100.00
32747;BME280;19118;50.860;13.662;2023-04-15T08:37:26;95668.38;;;9.34;100.00
32747;BME280;19118;50.860;13.662;2023-04-15T08:42:30;95669.56;;;9.20;100.00
32747;BME280;19118;50.860;13.662;2023-04-15T08:47:32;95665.59;;;9.29;100.00
32747;BME280;19118;50.860;13.662;2023-04-15T08:52:32;95665.50;;;9.36;100.00
32747;BME280;19118;50.860;13.662;2023-04-15T08:57:33;95676.16;;;9.89;100.00
32747;BME280;19118;50.860;13.662;2023-04-15T09:02:35;95697.19;;;10.49;100.00
32747;BME280;19118;50.860;13.662;2023-04-15T09:07:35;95714.56;;;10.80;100.00
32747;BME280;19118;50.860;13.662;2023-04-15T09:12:36;95715.69;;;10.72;100.00
32747;BME280;19118;50.860;13.662;2023-04-15T09:17:41;95725.44;;;10.37;100.00
32747;BME280;19118;50.860;13.662;2023-04-15T09:22:43;95725.75;;;9.87;100.00
32747;BME280;19118;50.860;13.662;2023-04-15T09:27:48;95720.97;;;10.07;100.00
32747;BME280;19118;50.860;13.662;2023-04-15T09:32:54;95728.38;;;9.57;100.00
32747;BME280;19118;50.860;13.662;2023-04-15T09:38:05;95733.78;;;9.92;100.00
32747;BME280;19118;50.860;13.662;2023-04-15T09:43:09;95744.25;;;9.69;100.00
32747;BME280;19118;50.860;13.662;2023-04-15T09:48:17;95744.63;;;10.32;100.00
32747;BME280;19118;50.860;13.662;2023-04-15T09:53:20;95754.44;;;10.55;100.00
32747;BME280;19118;50.860;13.662;2023-04-15T09:58:22;95761.34;;;10.79;100.00
32747;BME280;19118;50.860;13.662;2023-04-15T10:03:28;95768.38;;;11.09;100.00
32747;BME280;19118;50.860;13.662;2023-04-15T10:08:32;95778.47;;;11.35;100.00
32747;BME280;19118;50.860;13.662;2023-04-15T10:13:32;95793.75;;;11.57;100.00
32747;BME280;19118;50.860;13.662;2023-04-15T10:18:37;95801.09;;;11.90;100.00
32747;BME280;19118;50.860;13.662;2023-04-15T10:23:39;95802.75;;;11.32;100.00
32747;BME280;19118;50.860;13.662;2023-04-15T10:28:40;95814.41;;;10.43;100.00
32747;BME280;19118;50.860;13.662;2023-04-15T10:33:42;95804.06;;;9.93;100.00
32747;BME280;19118;50.860;13.662;2023-04-15T10:38:44;95797.97;;;9.92;100.00
32747;BME280;19118;50.860;13.662;2023-04-15T10:43:58;95812.25;;;10.03;100.00
32747;BME280;19118;50.860;13.662;2023-04-15T10:49:09;95810.19;;;10.24;100.00
32747;BME280;19118;50.860;13.662;2023-04-15T10:59:25;95816.06;;;10.67;100.00
32747;BME280;19118;50.860;13.662;2023-04-15T11:04:54;95829.50;;;10.54;100.00
32747;BME280;19118;50.860;13.662;2023-04-15T11:09:55;95837.66;;;10.23;100.00
32747;BME280;19118;50.860;13.662;2023-04-15T11:14:56;95833.41;;;10.22;100.00
32747;BME280;19118;50.860;13.662;2023-04-15T11:19:57;95844.88;;;10.27;100.00
32747;BME280;19118;50.860;13.662;2023-04-15T11:24:57;95851.91;;;10.63;100.00
32747;BME280;19118;50.860;13.662;2023-04-15T11:29:57;95851.91;;;10.63;100.00
32747;BME280;19118;50.860;13.662;2023-04-15T11:34:58;95854.16;;;10.78;100.00
32747;BME280;19118;50.860;13.662;2023-04-15T11:40:01;95868.25;;;11.25;100.00
32747;BME280;19118;50.860;13.662;2023-04-15T11:45:13;95874.50;;;10.77;100.00
32747;BME280;19118;50.860;13.662;2023-04-15T11:50:21;95885.44;;;10.93;100.00
32747;BME280;19118;50.860;13.662;2023-04-15T11:55:23;95884.72;;;10.44;100.00
32747;BME280;19118;50.860;13.662;2023-04-15T12:00:23;95884.69;;;10.32;100.00
32747;BME280;19118;50.860;13.662;2023-04-15T12:05:24;95895.59;;;10.36;100.00
32747;BME280;19118;50.860;13.662;2023-04-15T12:10:24;95898.41;;;10.53;100.00
32747;BME280;19118;50.860;13.662;2023-04-15T12:15:25;95908.66;;;10.91;100.00
32747;BME280;19118;50.860;13.662;2023-04-15T12:20:26;95925.72;;;10.65;100.00
32747;BME280;19118;50.860;13.662;2023-04-15T12:25:35;95926.25;;;10.55;100.00
32747;BME280;19118;50.860;13.662;2023-04-15T12:30:35;95930.19;;;10.34;100.00
32747;BME280;19118;50.860;13.662;2023-04-15T12:35:36;95936.44;;;10.70;100.00
32747;BME280;19118;50.860;13.662;2023-04-15T12:40:36;95945.22;;;10.82;100.00
32747;BME280;19118;50.860;13.662;2023-04-15T12:45:36;95950.22;;;10.42;100.00
32747;BME280;19118;50.860;13.662;2023-04-15T12:50:37;95954.53;;;10.36;100.00
32747;BME280;19118;50.860;13.662;2023-04-15T12:55:37;95964.72;;;10.51;100.00
32747;BME280;19118;50.860;13.662;2023-04-15T13:00:38;95965.16;;;10.66;100.00
32747;BME280;19118;50.860;13.662;2023-04-15T13:05:38;95968.44;;;10.80;100.00
32747;BME280;19118;50.860;13.662;2023-04-15T13:10:39;95976.03;;;11.18;100.00
32747;BME280;19118;50.860;13.662;2023-04-15T13:15:39;95989.19;;;11.36;100.00
32747;BME280;19118;50.860;13.662;2023-04-15T13:20:40;95990.41;;;11.87;100.00
32747;BME280;19118;50.860;13.662;2023-04-15T13:25:40;96002.53;;;11.95;96.99
32747;BME280;19118;50.860;13.662;2023-04-15T13:30:41;96013.94;;;12.19;93.63
32747;BME280;19118;50.860;13.662;2023-04-15T13:35:43;96019.03;;;12.72;90.83
32747;BME280;19118;50.860;13.662;2023-04-15T13:40:43;96029.34;;;12.97;87.35
32747;BME280;19118;50.860;13.662;2023-04-15T13:45:45;96032.13;;;13.48;84.43
32747;BME280;19118;50.860;13.662;2023-04-15T13:50:46;96040.06;;;13.76;82.12
32747;BME280;19118;50.860;13.662;2023-04-15T13:55:46;96049.06;;;13.92;79.25
32747;BME280;19118;50.860;13.662;2023-04-15T14:00:46;96046.19;;;14.10;78.90
32747;BME280;19118;50.860;13.662;2023-04-15T14:05:47;96046.00;;;14.34;75.91
32747;BME280;19118;50.860;13.662;2023-04-15T14:10:52;96054.72;;;13.62;78.54
32747;BME280;19118;50.860;13.662;2023-04-15T14:15:52;96073.34;;;13.22;79.55
32747;BME280;19118;50.860;13.662;2023-04-15T14:20:53;96069.72;;;12.24;84.85
32747;BME280;19118;50.860;13.662;2023-04-15T14:25:53;96077.19;;;12.15;85.79
32747;BME280;19118;50.860;13.662;2023-04-15T14:30:54;96079.88;;;11.74;86.12
32747;BME280;19118;50.860;13.662;2023-04-15T14:35:54;96079.22;;;11.18;92.15
32747;BME280;19118;50.860;13.662;2023-04-15T14:40:55;96081.25;;;11.76;89.16
32747;BME280;19118;50.860;13.662;2023-04-15T14:45:55;96084.41;;;12.67;85.31
32747;BME280;19118;50.860;13.662;2023-04-15T14:50:55;96095.63;;;12.34;84.41
32747;BME280;19118;50.860;13.662;2023-04-15T14:55:56;96103.81;;;12.56;83.50
32747;BME280;19118;50.860;13.662;2023-04-15T15:00:56;96112.34;;;12.34;81.22
32747;BME280;19118;50.860;13.662;2023-04-15T15:05:57;96115.78;;;12.93;77.18
32747;BME280;19118;50.860;13.662;2023-04-15T15:10:57;96119.94;;;12.19;79.90
32747;BME280;19118;50.860;13.662;2023-04-15T15:15:58;96123.13;;;13.15;78.10
32747;BME280;19118;50.860;13.662;2023-04-15T15:20:58;96138.47;;;13.01;78.27
32747;BME280;19118;50.860;13.662;2023-04-15T15:25:58;96140.03;;;12.38;79.24
32747;BME280;19118;50.860;13.662;2023-04-15T15:30:59;96137.88;;;11.63;82.54
32747;BME280;19118;50.860;13.662;2023-04-15T15:35:59;96147.84;;;11.50;81.98
32747;BME280;19118;50.860;13.662;2023-04-15T15:41:00;96149.16;;;10.92;87.75
32747;BME280;19118;50.860;13.662;2023-04-15T15:46:00;96144.06;;;10.54;97.03
32747;BME280;19118;50.860;13.662;2023-04-15T15:51:01;96159.13;;;10.72;96.06
32747;BME280;19118;50.860;13.662;2023-04-15T15:56:03;96163.09;;;10.38;94.32
32747;BME280;19118;50.860;13.662;2023-04-15T16:01:04;96167.13;;;10.65;92.87
32747;BME280;19118;50.860;13.662;2023-04-15T16:06:05;96179.41;;;10.53;94.71
32747;BME280;19118;50.860;13.662;2023-04-15T16:11:05;96174.09;;;10.60;95.57
32747;BME280;19118;50.860;13.662;2023-04-15T16:16:06;96187.66;;;10.45;95.66
32747;BME280;19118;50.860;13.662;2023-04-15T16:21:06;96183.22;;;10.39;98.28
32747;BME280;19118;50.860;13.662;2023-04-15T16:26:07;96188.03;;;10.24;99.52
32747;BME280;19118;50.860;13.662;2023-04-15T16:31:10;96189.94;;;10.10;100.00
32747;BME280;19118;50.860;13.662;2023-04-15T16:36:10;96199.75;;;9.96;99.47
32747;BME280;19118;50.860;13.662;2023-04-15T16:41:11;96205.03;;;9.96;100.00
32747;BME280;19118;50.860;13.662;2023-04-15T16:46:11;96212.38;;;9.94;99.55
32747;BME280;19118;50.860;13.662;2023-04-15T16:51:11;96218.78;;;9.73;96.52
32747;BME280;19118;50.860;13.662;2023-04-15T16:56:12;96217.88;;;9.54;97.60
32747;BME280;19118;50.860;13.662;2023-04-15T17:01:12;96227.63;;;9.54;100.00
32747;BME280;19118;50.860;13.662;2023-04-15T17:06:14;96225.19;;;9.46;100.00
32747;BME280;19118;50.860;13.662;2023-04-15T17:11:15;96236.25;;;9.23;100.00
32747;BME280;19118;50.860;13.662;2023-04-15T17:16:16;96236.31;;;8.96;100.00
32747;BME280;19118;50.860;13.662;2023-04-15T17:21:17;96238.75;;;8.91;100.00
32747;BME280;19118;50.860;13.662;2023-04-15T17:26:18;96243.63;;;8.81;100.00
32747;BME280;19118;50.860;13.662;2023-04-15T17:31:18;96236.75;;;8.54;100.00
32747;BME280;19118;50.860;13.662;2023-04-15T17:36:18;96245.00;;;8.11;100.00
32747;BME280;19118;50.860;13.662;2023-04-15T17:41:19;96231.22;;;7.96;100.00
32747;BME280;19118;50.860;13.662;2023-04-15T17:46:19;96233.63;;;7.84;100.00
32747;BME280;19118;50.860;13.662;2023-04-15T17:51:20;96238.22;;;7.69;100.00
32747;BME280;19118;50.860;13.662;2023-04-15T17:56:20;96245.88;;;7.50;100.00
32747;BME280;19118;50.860;13.662;2023-04-15T18:01:21;96237.94;;;7.44;100.00
32747;BME280;19118;50.860;13.662;2023-04-15T18:06:21;96250.81;;;7.25;100.00
32747;BME280;19118;50.860;13.662;2023-04-15T18:11:22;96250.53;;;7.07;100.00
32747;BME280;19118;50.860;13.662;2023-04-15T18:16:22;96269.47;;;6.96;100.00
32747;BME280;19118;50.860;13.662;2023-04-15T18:21:22;96275.25;;;6.85;100.00
32747;BME280;19118;50.860;13.662;2023-04-15T18:26:23;96277.69;;;6.58;100.00
32747;BME280;19118;50.860;13.662;2023-04-15T18:31:23;96288.06;;;6.45;100.00
32747;BME280;19118;50.860;13.662;2023-04-15T18:36:23;96282.69;;;6.32;100.00
32747;BME280;19118;50.860;13.662;2023-04-15T18:41:24;96288.22;;;6.16;100.00
32747;BME280;19118;50.860;13.662;2023-04-15T18:46:25;96293.25;;;5.96;100.00
32747;BME280;19118;50.860;13.662;2023-04-15T18:51:25;96297.13;;;5.85;100.00
32747;BME280;19118;50.860;13.662;2023-04-15T18:56:26;96307.59;;;5.64;100.00
32747;BME280;19118;50.860;13.662;2023-04-15T19:01:26;96302.13;;;5.44;100.00
32747;BME280;19118;50.860;13.662;2023-04-15T19:06:27;96311.88;;;5.35;100.00
32747;BME280;19118;50.860;13.662;2023-04-15T19:11:27;96327.69;;;5.27;100.00
32747;BME280;19118;50.860;13.662;2023-04-15T19:16:28;96332.38;;;5.17;100.00
32747;BME280;19118;50.860;13.662;2023-04-15T19:21:28;96334.94;;;5.10;100.00
32747;BME280;19118;50.860;13.662;2023-04-15T19:26:29;96355.09;;;5.10;100.00
32747;BME280;19118;50.860;13.662;2023-04-15T19:31:30;96365.91;;;5.07;100.00
32747;BME280;19118;50.860;13.662;2023-04-15T19:36:31;96366.63;;;5.01;100.00
32747;BME280;19118;50.860;13.662;2023-04-15T19:41:31;96370.66;;;4.88;100.00
32747;BME280;19118;50.860;13.662;2023-04-15T19:46:31;96381.22;;;4.80;100.00
32747;BME280;19118;50.860;13.662;2023-04-15T19:51:32;96386.81;;;4.77;100.00
32747;BME280;19118;50.860;13.662;2023-04-15T19:56:32;96401.22;;;4.73;100.00
32747;BME280;19118;50.860;13.662;2023-04-15T20:01:33;96404.56;;;4.67;100.00
32747;BME280;19118;50.860;13.662;2023-04-15T20:06:33;96404.34;;;4.54;100.00
32747;BME280;19118;50.860;13.662;2023-04-15T20:11:33;96418.47;;;4.45;100.00
32747;BME280;19118;50.860;13.662;2023-04-15T20:16:34;96422.09;;;4.35;100.00
32747;BME280;19118;50.860;13.662;2023-04-15T20:21:35;96428.69;;;4.31;100.00
32747;BME280;19118;50.860;13.662;2023-04-15T20:26:35;96431.63;;;4.28;100.00
32747;BME280;19118;50.860;13.662;2023-04-15T20:31:35;96438.84;;;4.26;100.00
32747;BME280;19118;50.860;13.662;2023-04-15T20:36:36;96440.47;;;4.27;100.00
32747;BME280;19118;50.860;13.662;2023-04-15T20:41:36;96450.25;;;4.33;100.00
32747;BME280;19118;50.860;13.662;2023-04-15T20:46:37;96452.72;;;4.35;100.00
32747;BME280;19118;50.860;13.662;2023-04-15T20:51:37;96456.50;;;4.32;100.00
32747;BME280;19118;50.860;13.662;2023-04-15T20:56:37;96466.16;;;4.32;100.00
32747;BME280;19118;50.860;13.662;2023-04-15T21:01:38;96477.59;;;4.31;100.00
32747;BME280;19118;50.860;13.662;2023-04-15T21:06:39;96474.63;;;4.34;100.00
32747;BME280;19118;50.860;13.662;2023-04-15T21:11:39;96482.66;;;4.32;100.00
32747;BME280;19118;50.860;13.662;2023-04-15T21:16:41;96491.81;;;4.28;100.00
32747;BME280;19118;50.860;13.662;2023-04-15T21:21:41;96497.41;;;4.25;100.00
32747;BME280;19118;50.860;13.662;2023-04-15T21:26:42;96501.69;;;4.18;100.00
32747;BME280;19118;50.860;13.662;2023-04-15T21:31:42;96505.34;;;4.01;100.00
32747;BME280;19118;50.860;13.662;2023-04-15T21:36:42;96515.00;;;3.92;100.00
32747;BME280;19118;50.860;13.662;2023-04-15T21:41:43;96515.53;;;3.88;100.00
32747;BME280;19118;50.860;13.662;2023-04-15T21:46:43;96527.97;;;3.86;100.00
32747;BME280;19118;50.860;13.662;2023-04-15T21:51:43;96529.44;;;3.80;100.00
32747;BME280;19118;50.860;13.662;2023-04-15T21:56:45;96522.06;;;3.84;100.00
32747;BME280;19118;50.860;13.662;2023-04-15T22:01:48;96522.75;;;3.86;100.00
32747;BME280;19118;50.860;13.662;2023-04-15T22:06:49;96533.31;;;3.92;100.00
32747;BME280;19118;50.860;13.662;2023-04-15T22:11:49;96535.91;;;4.08;100.00
32747;BME280;19118;50.860;13.662;2023-04-15T22:16:49;96559.78;;;4.05;100.00
32747;BME280;19118;50.860;13.662;2023-04-15T22:21:50;96561.44;;;3.98;100.00
32747;BME280;19118;50.860;13.662;2023-04-15T22:26:50;96560.28;;;3.93;100.00
32747;BME280;19118;50.860;13.662;2023-04-15T22:31:51;96577.63;;;3.94;100.00
32747;BME280;19118;50.860;13.662;2023-04-15T22:36:51;96577.63;;;3.94;100.00
32747;BME280;19118;50.860;13.662;2023-04-15T22:41:52;96578.78;;;3.99;100.00
32747;BME280;19118;50.860;13.662;2023-04-15T22:46:52;96582.19;;;4.08;100.00
32747;BME280;19118;50.860;13.662;2023-04-15T22:51:52;96587.44;;;4.08;100.00
32747;BME280;19118;50.860;13.662;2023-04-15T22:56:52;96588.53;;;4.14;100.00
32747;BME280;19118;50.860;13.662;2023-04-15T23:01:53;96594.59;;;4.22;100.00
32747;BME280;19118;50.860;13.662;2023-04-15T23:06:53;96604.41;;;4.20;100.00
32747;BME280;19118;50.860;13.662;2023-04-15T23:11:54;96601.94;;;4.19;100.00
32747;BME280;19118;50.860;13.662;2023-04-15T23:16:56;96605.41;;;4.11;100.00
32747;BME280;19118;50.860;13.662;2023-04-15T23:21:56;96606.88;;;4.05;100.00
32747;BME280;19118;50.860;13.662;2023-04-15T23:26:56;96608.38;;;4.00;100.00
32747;BME280;19118;50.860;13.662;2023-04-15T23:31:57;96606.72;;;3.99;100.00
32747;BME280;19118;50.860;13.662;2023-04-15T23:36:57;96611.28;;;4.05;100.00
32747;BME280;19118;50.860;13.662;2023-04-15T23:41:57;96609.31;;;4.07;100.00
32747;BME280;19118;50.860;13.662;2023-04-15T23:46:58;96609.00;;;4.02;100.00
32747;BME280;19118;50.860;13.662;2023-04-15T23:51:58;96608.53;;;3.90;100.00
32747;BME280;19118;50.860;13.662;2023-04-15T23:56:59;96614.41;;;3.84;100.00
